createdAt,value
2022-11-01T00:01:18.307Z,13.12
2022-11-01T00:03:46.611Z,13.29
2022-11-01T00:06:46.405Z,13.16
2022-11-01T00:09:21.880Z,13.16
2022-11-01T00:11:52.187Z,13.09
2022-11-01T00:14:22.591Z,13.12
2022-11-01T00:16:50.701Z,13.19
2022-11-01T00:19:18.116Z,13.14
2022-11-01T00:21:45.438Z,13.20
2022-11-01T00:24:12.444Z,13.12
2022-11-01T00:26:39.736Z,13.02
2022-11-01T00:29:06.750Z,13.23
2022-11-01T00:31:33.759Z,13.22
2022-11-01T00:34:03.766Z,13.13
2022-11-01T00:36:32.414Z,13.22
2022-11-01T00:39:02.370Z,13.16
2022-11-01T00:41:29.419Z,13.03
2022-11-01T00:43:56.368Z,13.00
2022-11-01T00:46:23.514Z,13.00
2022-11-01T00:48:50.535Z,13.07
2022-11-01T00:51:17.544Z,13.15
2022-11-01T00:53:44.469Z,13.20
2022-11-01T00:56:11.466Z,13.46
2022-11-01T00:58:38.549Z,13.32
2022-11-01T01:01:06.055Z,13.34
2022-11-01T01:03:33.047Z,13.42
2022-11-01T01:06:00.029Z,13.23
2022-11-01T01:08:36.685Z,12.92
2022-11-01T01:11:06.821Z,12.95
2022-11-01T01:13:33.749Z,12.95
2022-11-01T01:16:00.708Z,13.19
2022-11-01T01:18:27.975Z,13.14
2022-11-01T01:21:02.789Z,12.86
2022-11-01T01:23:30.385Z,12.67
2022-11-01T01:25:57.472Z,12.63
2022-11-01T01:28:24.410Z,12.58
2022-11-01T01:30:51.459Z,12.51
2022-11-01T01:33:18.355Z,12.40
2022-11-01T01:35:45.301Z,12.38
2022-11-01T01:38:12.213Z,12.31
2022-11-01T01:40:42.293Z,12.37
2022-11-01T01:43:12.708Z,12.45
2022-11-01T01:45:41.882Z,12.47
2022-11-01T01:48:27.031Z,12.51
2022-11-01T01:51:02.500Z,12.59
2022-11-01T01:53:41.740Z,12.61
2022-11-01T01:56:21.176Z,12.60
2022-11-01T01:59:08.721Z,12.98
2022-11-01T02:01:39.880Z,13.06
2022-11-01T02:04:25.989Z,13.13
2022-11-01T02:06:53.659Z,12.93
2022-11-01T02:09:21.403Z,12.63
2022-11-01T02:11:48.604Z,12.74
2022-11-01T02:14:21.246Z,12.68
2022-11-01T02:17:10.095Z,12.76
2022-11-01T02:20:56.520Z,12.60
2022-11-01T02:23:51.321Z,12.77
2022-11-01T02:27:02.853Z,12.45
2022-11-01T02:30:05.081Z,12.22
2022-11-01T02:33:13.450Z,11.94
2022-11-01T02:36:04.389Z,11.74
2022-11-01T02:38:52.463Z,11.88
2022-11-01T02:41:32.959Z,11.89
2022-11-01T02:44:06.170Z,11.90
2022-11-01T02:46:58.428Z,11.99
2022-11-01T02:49:32.746Z,11.95
2022-11-01T02:52:02.299Z,12.03
2022-11-01T02:54:38.985Z,12.01
2022-11-01T02:57:47.693Z,11.98
2022-11-01T03:00:42.678Z,12.08
2022-11-01T03:03:32.763Z,12.11
2022-11-01T03:06:06.219Z,11.99
2022-11-01T03:08:41.181Z,11.86
2022-11-01T03:11:40.929Z,11.79
2022-11-01T03:14:41.747Z,11.71
2022-11-01T03:17:13.718Z,11.74
2022-11-01T03:20:06.918Z,11.70
2022-11-01T03:23:08.509Z,11.81
2022-11-01T03:26:02.102Z,11.87
2022-11-01T03:28:49.303Z,11.97
2022-11-01T03:31:32.628Z,11.89
2022-11-01T03:34:06.044Z,11.73
2022-11-01T03:36:57.250Z,11.59
2022-11-01T03:39:54.332Z,11.71
2022-11-01T03:42:38.898Z,11.86
2022-11-01T03:45:14.711Z,11.96
2022-11-01T03:47:42.759Z,11.86
2022-11-01T03:50:28.949Z,11.91
2022-11-01T03:52:58.847Z,11.81
2022-11-01T03:55:26.437Z,11.61
2022-11-01T03:57:57.416Z,11.54
2022-11-01T04:00:39.031Z,11.46
2022-11-01T04:03:06.876Z,11.47
2022-11-01T04:05:40.769Z,11.38
2022-11-01T04:08:11.089Z,11.45
2022-11-01T04:10:38.346Z,11.42
2022-11-01T04:13:05.683Z,11.60
2022-11-01T04:15:51.870Z,11.55
2022-11-01T04:18:43.796Z,11.30
2022-11-01T04:21:21.736Z,11.26
2022-11-01T04:23:48.953Z,11.24
2022-11-01T04:26:22.958Z,11.28
2022-11-01T04:28:56.866Z,11.17
2022-11-01T04:31:30.054Z,11.22
2022-11-01T04:33:58.913Z,11.14
2022-11-01T04:36:26.607Z,11.24
2022-11-01T04:38:58.331Z,11.45
2022-11-01T04:41:28.754Z,11.61
2022-11-01T04:44:00.351Z,11.75
2022-11-01T04:46:32.084Z,11.93
2022-11-01T04:49:16.039Z,11.68
2022-11-01T04:51:43.421Z,11.83
2022-11-01T04:54:10.725Z,12.01
2022-11-01T04:56:41.132Z,11.85
2022-11-01T04:59:23.732Z,11.86
2022-11-01T05:01:54.538Z,12.20
2022-11-01T05:04:34.769Z,12.31
2022-11-01T05:07:20.773Z,12.17
2022-11-01T05:09:51.087Z,12.18
2022-11-01T05:12:21.912Z,12.22
2022-11-01T05:14:56.680Z,12.19
2022-11-01T05:17:26.907Z,12.11
2022-11-01T05:19:54.618Z,12.11
2022-11-01T05:22:39.777Z,12.14
2022-11-01T05:25:09.507Z,12.35
2022-11-01T05:27:38.213Z,12.28
2022-11-01T05:30:06.922Z,12.35
2022-11-01T05:32:42.852Z,12.38
2022-11-01T05:35:22.400Z,12.30
2022-11-01T05:37:49.807Z,12.50
2022-11-01T05:40:17.013Z,12.46
2022-11-01T05:42:43.984Z,12.44
2022-11-01T05:45:11.475Z,12.45
2022-11-01T05:47:41.840Z,12.32
2022-11-01T05:50:11.882Z,12.26
2022-11-01T05:52:51.132Z,12.24
2022-11-01T05:55:18.813Z,12.31
2022-11-01T05:57:51.790Z,12.32
2022-11-01T06:00:21.547Z,11.93
2022-11-01T06:03:00.895Z,12.30
2022-11-01T06:05:30.119Z,11.95
2022-11-01T06:07:58.130Z,12.14
2022-11-01T06:10:27.980Z,12.03
2022-11-01T06:12:55.661Z,12.21
2022-11-01T06:15:27.628Z,12.09
2022-11-01T06:17:58.954Z,12.19
2022-11-01T06:20:29.427Z,12.25
2022-11-01T06:23:01.410Z,12.03
2022-11-01T06:25:29.245Z,12.24
2022-11-01T06:27:59.681Z,12.30
2022-11-01T06:30:26.782Z,12.05
2022-11-01T06:33:01.351Z,12.24
2022-11-01T06:35:32.282Z,12.14
2022-11-01T06:38:07.370Z,12.36
2022-11-01T06:40:36.979Z,12.42
2022-11-01T06:43:09.454Z,12.15
2022-11-01T06:45:36.408Z,12.31
2022-11-01T06:48:03.911Z,12.27
2022-11-01T06:50:32.052Z,12.00
2022-11-01T06:53:00.382Z,12.37
2022-11-01T06:55:28.993Z,12.41
2022-11-01T06:58:01.349Z,12.39
2022-11-01T07:00:30.579Z,12.51
2022-11-01T07:03:10.264Z,12.36
2022-11-01T07:05:39.144Z,12.53
2022-11-01T07:08:10.809Z,12.25
2022-11-01T07:10:41.162Z,12.57
2022-11-01T07:13:12.153Z,12.44
2022-11-01T07:15:40.067Z,12.67
2022-11-01T07:18:08.517Z,12.29
2022-11-01T07:20:41.921Z,12.55
2022-11-01T07:23:16.692Z,12.60
2022-11-01T07:25:44.512Z,12.61
2022-11-01T07:28:11.667Z,12.81
2022-11-01T07:30:40.807Z,12.88
2022-11-01T07:33:07.869Z,12.96
2022-11-01T07:35:35.732Z,13.13
2022-11-01T07:38:12.543Z,13.11
2022-11-01T07:40:40.488Z,12.97
2022-11-01T07:43:08.185Z,13.07
2022-11-01T07:45:36.680Z,13.15
2022-11-01T07:48:10.370Z,13.07
2022-11-01T07:50:43.353Z,13.05
2022-11-01T07:53:19.431Z,12.96
2022-11-01T07:55:48.350Z,13.21
2022-11-01T07:58:16.709Z,13.23
2022-11-01T08:00:47.961Z,13.29
2022-11-01T08:03:19.544Z,13.21
2022-11-01T08:05:48.567Z,13.36
2022-11-01T08:08:16.578Z,13.55
2022-11-01T08:10:44.170Z,13.50
2022-11-01T08:13:21.562Z,13.53
2022-11-01T08:15:50.480Z,13.54
2022-11-01T08:18:21.330Z,13.67
2022-11-01T08:20:52.152Z,13.77
2022-11-01T08:23:20.099Z,13.76
2022-11-01T08:25:47.359Z,13.62
2022-11-01T08:28:21.033Z,13.67
2022-11-01T08:30:50.310Z,13.66
2022-11-01T08:33:17.502Z,13.57
2022-11-01T08:35:50.643Z,13.65
2022-11-01T08:38:18.943Z,13.80
2022-11-01T08:40:46.128Z,13.71
2022-11-01T08:43:25.146Z,13.62
2022-11-01T08:45:52.386Z,13.76
2022-11-01T08:48:19.344Z,13.82
2022-11-01T08:50:46.259Z,14.11
2022-11-01T08:53:19.838Z,14.26
2022-11-01T08:55:58.056Z,14.32
2022-11-01T08:58:25.214Z,14.39
2022-11-01T09:00:52.224Z,14.40
2022-11-01T09:03:22.641Z,14.24
2022-11-01T09:05:57.398Z,14.30
2022-11-01T09:08:30.452Z,14.15
2022-11-01T09:11:03.588Z,14.27
2022-11-01T09:13:31.043Z,14.28
2022-11-01T09:16:02.192Z,14.52
2022-11-01T09:18:29.879Z,14.68
2022-11-01T09:20:56.875Z,15.01
2022-11-01T09:23:23.825Z,14.75
2022-11-01T09:25:50.988Z,14.95
2022-11-01T09:28:23.548Z,15.05
2022-11-01T09:31:01.363Z,15.35
2022-11-01T09:33:37.116Z,15.05
2022-11-01T09:36:04.629Z,15.37
2022-11-01T09:38:40.085Z,15.34
2022-11-01T09:41:20.631Z,15.44
2022-11-01T09:43:49.709Z,15.48
2022-11-01T09:48:59.150Z,15.57
2022-11-01T09:51:26.831Z,15.66
2022-11-01T09:53:58.003Z,15.67
2022-11-01T09:57:07.426Z,15.83
2022-11-01T09:59:45.910Z,15.89
2022-11-01T10:03:33.767Z,15.79
2022-11-01T10:06:20.060Z,15.90
2022-11-01T10:09:33.899Z,15.98
2022-11-01T10:12:25.004Z,16.00
2022-11-01T10:15:29.625Z,16.22
2022-11-01T10:18:12.776Z,15.84
2022-11-01T10:20:41.544Z,16.21
2022-11-01T10:23:15.724Z,16.41
2022-11-01T10:25:52.878Z,16.46
2022-11-01T10:28:52.240Z,16.47
2022-11-01T10:31:26.268Z,16.53
2022-11-01T10:34:35.938Z,16.42
2022-11-01T10:38:11.208Z,16.47
2022-11-01T10:40:54.597Z,16.53
2022-11-01T10:43:25.369Z,16.59
2022-11-01T10:45:57.666Z,16.62
2022-11-01T10:48:38.479Z,16.65
2022-11-01T10:51:08.551Z,16.73
2022-11-01T10:53:48.101Z,16.74
2022-11-01T10:56:24.050Z,16.64
2022-11-01T10:59:09.983Z,16.74
2022-11-01T11:01:44.013Z,16.76
2022-11-01T11:04:16.857Z,16.76
2022-11-01T11:06:44.606Z,16.85
2022-11-01T11:09:34.304Z,16.80
2022-11-01T11:12:26.985Z,16.81
2022-11-01T11:15:16.813Z,16.79
2022-11-01T11:17:46.413Z,16.80
2022-11-01T11:20:17.624Z,16.87
2022-11-01T11:22:44.600Z,16.81
2022-11-01T11:25:19.037Z,16.94
2022-11-01T11:27:52.729Z,17.01
2022-11-01T11:30:35.384Z,17.21
2022-11-01T11:33:03.832Z,17.53
2022-11-01T11:35:33.326Z,17.90
2022-11-01T11:38:07.002Z,18.01
2022-11-01T11:40:43.084Z,18.34
2022-11-01T11:43:31.241Z,18.24
2022-11-01T11:46:21.818Z,18.26
2022-11-01T11:48:59.071Z,18.33
2022-11-01T11:51:29.815Z,18.15
2022-11-01T11:54:22.518Z,18.04
2022-11-01T11:57:07.454Z,18.02
2022-11-01T11:59:35.509Z,17.85
2022-11-01T12:02:15.822Z,17.76
2022-11-01T12:05:14.324Z,17.72
2022-11-01T12:07:53.650Z,17.61
2022-11-01T12:10:46.319Z,17.48
2022-11-01T12:13:41.154Z,17.54
2022-11-01T12:16:21.466Z,17.42
2022-11-01T12:19:02.136Z,17.52
2022-11-01T12:21:42.216Z,17.35
2022-11-01T12:24:49.266Z,17.27
2022-11-01T12:27:25.097Z,17.24
2022-11-01T12:30:19.406Z,17.26
2022-11-01T12:33:02.630Z,17.17
2022-11-01T12:35:44.162Z,17.20
2022-11-01T12:38:53.227Z,17.16
2022-11-01T12:41:51.313Z,17.17
2022-11-01T12:44:53.576Z,17.18
2022-11-01T12:47:43.534Z,17.25
2022-11-01T12:50:33.579Z,17.32
2022-11-01T12:53:15.908Z,17.35
2022-11-01T12:55:47.044Z,17.54
2022-11-01T12:58:23.107Z,17.48
2022-11-01T13:01:38.300Z,17.45
2022-11-01T13:04:58.707Z,17.35
2022-11-01T13:07:44.780Z,17.37
2022-11-01T13:10:47.534Z,17.39
2022-11-01T13:13:58.314Z,17.50
2022-11-01T13:16:36.525Z,17.63
2022-11-01T13:19:34.775Z,17.67
2022-11-01T13:22:52.223Z,17.78
2022-11-01T13:25:42.823Z,17.94
2022-11-01T13:28:55.928Z,18.07
2022-11-01T13:32:07.053Z,18.52
2022-11-01T13:34:55.630Z,18.82
2022-11-01T13:37:53.435Z,18.94
2022-11-01T13:40:54.491Z,19.15
2022-11-01T13:43:44.743Z,18.70
2022-11-01T13:46:47.076Z,18.54
2022-11-01T13:49:27.738Z,18.29
2022-11-01T13:52:32.511Z,18.15
2022-11-01T13:55:47.182Z,17.87
2022-11-01T13:58:20.323Z,17.88
2022-11-01T14:00:51.967Z,17.85
2022-11-01T14:03:29.710Z,17.71
2022-11-01T14:06:23.976Z,17.62
2022-11-01T14:09:11.364Z,17.55
2022-11-01T14:11:57.379Z,17.55
2022-11-01T14:14:51.033Z,17.46
2022-11-01T14:17:39.529Z,17.44
2022-11-01T14:20:08.401Z,17.33
2022-11-01T14:22:35.963Z,17.29
2022-11-01T14:25:31.898Z,17.42
2022-11-01T14:28:17.137Z,17.38
2022-11-01T14:30:49.302Z,17.40
2022-11-01T14:33:24.149Z,17.49
2022-11-01T14:35:56.989Z,17.58
2022-11-01T14:38:44.969Z,17.74
2022-11-01T14:41:34.928Z,17.76
2022-11-01T14:44:29.984Z,17.78
2022-11-01T14:47:02.043Z,17.73
2022-11-01T14:49:42.325Z,17.83
2022-11-01T14:52:42.215Z,17.60
2022-11-01T14:55:31.499Z,17.58
2022-11-01T14:58:24.176Z,17.59
2022-11-01T15:00:54.952Z,17.48
2022-11-01T15:03:22.889Z,17.39
2022-11-01T15:05:53.037Z,17.37
2022-11-01T15:08:30.966Z,17.29
2022-11-01T15:11:03.313Z,17.07
2022-11-01T15:13:34.179Z,16.99
2022-11-01T15:16:21.756Z,16.94
2022-11-01T15:19:19.267Z,16.91
2022-11-01T15:21:47.602Z,16.77
2022-11-01T15:24:25.911Z,16.68
2022-11-01T15:26:54.186Z,16.56
2022-11-01T15:29:24.823Z,16.58
2022-11-01T15:32:01.792Z,16.48
2022-11-01T15:34:36.607Z,16.38
2022-11-01T15:37:37.287Z,16.31
2022-11-01T15:40:35.081Z,16.23
2022-11-01T15:43:04.346Z,16.08
2022-11-01T15:45:36.715Z,15.98
2022-11-01T15:48:12.524Z,15.97
2022-11-01T15:50:46.177Z,15.88
2022-11-01T15:53:22.909Z,15.88
2022-11-01T15:55:58.393Z,15.85
2022-11-01T15:58:44.104Z,15.84
2022-11-01T16:01:22.882Z,15.79
2022-11-01T16:04:12.614Z,15.69
2022-11-01T16:07:08.211Z,15.72
2022-11-01T16:09:45.237Z,15.62
2022-11-01T16:12:27.166Z,15.63
2022-11-01T16:15:00.266Z,15.53
2022-11-01T16:17:42.217Z,15.50
2022-11-01T16:20:43.198Z,15.49
2022-11-01T16:23:28.575Z,15.45
2022-11-01T16:26:08.478Z,15.33
2022-11-01T16:28:46.320Z,15.27
2022-11-01T16:31:30.837Z,15.23
2022-11-01T16:33:57.936Z,15.22
2022-11-01T16:36:38.291Z,15.14
2022-11-01T16:39:31.268Z,15.09
2022-11-01T16:41:59.584Z,15.05
2022-11-01T16:44:26.715Z,15.07
2022-11-01T16:46:55.017Z,15.02
2022-11-01T16:49:31.296Z,15.00
2022-11-01T16:51:58.597Z,14.96
2022-11-01T16:54:26.072Z,15.01
2022-11-01T16:56:56.698Z,14.98
2022-11-01T16:59:35.571Z,14.97
2022-11-01T17:02:17.684Z,14.90
2022-11-01T17:04:49.655Z,14.88
2022-11-01T17:07:17.380Z,14.86
2022-11-01T17:09:44.536Z,14.85
2022-11-01T17:12:11.710Z,14.84
2022-11-01T17:17:22.190Z,14.71
2022-11-01T17:19:59.441Z,14.61
2022-11-01T17:22:35.951Z,14.41
2022-11-01T17:25:07.298Z,14.53
2022-11-01T17:27:34.780Z,14.29
2022-11-01T17:30:01.783Z,14.32
2022-11-01T17:32:28.838Z,14.28
2022-11-01T17:34:55.902Z,14.27
2022-11-01T17:37:25.879Z,14.18
2022-11-01T17:39:52.866Z,14.19
2022-11-01T17:42:19.779Z,14.24
2022-11-01T17:44:46.715Z,14.22
2022-11-01T17:47:15.501Z,14.04
2022-11-01T17:49:42.525Z,14.02
2022-11-01T17:52:09.435Z,13.98
2022-11-01T17:54:36.456Z,13.96
2022-11-01T17:57:03.490Z,13.97
2022-11-01T17:59:30.907Z,13.86
2022-11-01T18:01:58.168Z,13.81
2022-11-01T18:04:25.186Z,13.68
2022-11-01T18:06:52.370Z,13.55
2022-11-01T18:09:25.248Z,13.48
2022-11-01T18:12:03.428Z,13.24
2022-11-01T18:15:21.365Z,12.59
2022-11-01T18:18:12.811Z,12.30
2022-11-01T18:21:31.329Z,12.01
2022-11-01T18:24:02.457Z,12.15
2022-11-01T18:26:29.631Z,12.32
2022-11-01T18:29:15.969Z,12.13
2022-11-01T18:31:52.739Z,11.92
2022-11-01T18:34:54.742Z,11.90
2022-11-01T18:38:03.057Z,12.04
2022-11-01T18:40:53.741Z,12.13
2022-11-01T18:43:21.253Z,12.27
2022-11-01T18:46:18.791Z,12.24
2022-11-01T18:48:37.340Z,12.01
2022-11-01T18:51:11.431Z,11.65
2022-11-01T18:53:38.382Z,11.44
2022-11-01T18:56:25.723Z,11.09
2022-11-01T18:58:54.216Z,10.97
2022-11-01T19:01:31.894Z,11.12
2022-11-01T19:04:24.855Z,11.43
2022-11-01T19:07:16.405Z,11.60
2022-11-01T19:10:02.732Z,11.34
2022-11-01T19:12:45.715Z,10.67
2022-11-01T19:15:31.478Z,10.28
2022-11-01T19:18:03.421Z,10.19
2022-11-01T19:20:49.831Z,10.54
2022-11-01T19:23:24.790Z,10.61
2022-11-01T19:25:51.822Z,10.55
2022-11-01T19:28:38.448Z,10.56
2022-11-01T19:31:25.214Z,10.62
2022-11-01T19:33:57.101Z,10.95
2022-11-01T19:36:47.075Z,10.97
2022-11-01T19:39:27.160Z,11.14
2022-11-01T19:42:01.993Z,11.26
2022-11-01T19:44:30.781Z,11.07
2022-11-01T19:47:41.599Z,10.60
2022-11-01T19:50:21.963Z,10.09
2022-11-01T19:52:52.223Z,9.56
2022-11-01T19:55:50.901Z,9.04
2022-11-01T19:58:27.784Z,9.00
2022-11-01T20:01:16.749Z,8.94
2022-11-01T20:03:56.301Z,9.21
2022-11-01T20:06:27.249Z,9.13
2022-11-01T20:09:04.382Z,9.61
2022-11-01T20:11:33.575Z,9.99
2022-11-01T20:14:01.323Z,10.14
2022-11-01T20:16:28.297Z,10.31
2022-11-01T20:18:55.480Z,10.43
2022-11-01T20:21:22.584Z,10.54
2022-11-01T20:23:49.729Z,10.56
2022-11-01T20:26:16.864Z,10.18
2022-11-01T20:28:43.831Z,9.58
2022-11-01T20:31:10.837Z,8.89
2022-11-01T20:33:37.769Z,8.58
2022-11-01T20:36:10.825Z,8.65
2022-11-01T20:38:39.688Z,8.99
2022-11-01T20:41:07.365Z,9.24
2022-11-01T20:43:34.662Z,9.30
2022-11-01T20:46:01.961Z,9.24
2022-11-01T20:48:29.447Z,9.43
2022-11-01T20:50:59.621Z,9.33
2022-11-01T20:53:29.735Z,9.58
2022-11-01T20:55:57.232Z,9.41
2022-11-01T20:58:24.705Z,9.24
2022-11-01T21:00:51.820Z,9.11
2022-11-01T21:03:21.793Z,8.75
2022-11-01T21:05:50.065Z,8.53
2022-11-01T21:08:26.439Z,8.48
2022-11-01T21:11:12.355Z,8.32
2022-11-01T21:14:02.725Z,8.15
2022-11-01T21:16:31.189Z,8.14
2022-11-01T21:19:02.519Z,8.04
2022-11-01T21:21:46.583Z,8.08
2022-11-01T21:24:46.273Z,8.15
2022-11-01T21:27:12.997Z,8.16
2022-11-01T21:29:49.446Z,8.21
2022-11-01T21:32:35.848Z,8.53
2022-11-01T21:35:40.898Z,8.63
2022-11-01T21:38:40.445Z,8.27
2022-11-01T21:41:58.425Z,7.85
2022-11-01T21:44:43.647Z,7.91
2022-11-01T21:47:26.001Z,7.81
2022-11-01T21:49:53.572Z,7.70
2022-11-01T21:52:20.726Z,7.71
2022-11-01T21:54:48.751Z,7.81
2022-11-01T21:57:17.494Z,7.72
2022-11-01T21:59:44.556Z,7.76
2022-11-01T22:02:14.963Z,7.86
2022-11-01T22:04:42.687Z,7.75
2022-11-01T22:07:12.523Z,7.67
2022-11-01T22:09:39.913Z,7.69
2022-11-01T22:12:07.872Z,7.59
2022-11-01T22:14:35.412Z,8.01
2022-11-01T22:17:02.509Z,8.15
2022-11-01T22:19:29.483Z,8.05
2022-11-01T22:21:56.468Z,8.02
2022-11-01T22:24:24.790Z,7.83
2022-11-01T22:26:51.911Z,7.65
2022-11-01T22:29:18.868Z,7.47
2022-11-01T22:31:45.851Z,7.92
2022-11-01T22:34:12.795Z,8.26
2022-11-01T22:36:42.197Z,8.23
2022-11-01T22:39:26.069Z,8.10
2022-11-01T22:41:54.360Z,7.84
2022-11-01T22:44:32.350Z,7.57
2022-11-01T22:47:02.470Z,7.52
2022-11-01T22:49:49.482Z,7.41
2022-11-01T22:52:29.546Z,7.35
2022-11-01T22:55:08.382Z,7.24
2022-11-01T22:57:45.875Z,7.30
2022-11-01T23:00:39.133Z,7.21
2022-11-01T23:03:22.567Z,7.41
2022-11-01T23:06:00.254Z,7.34
2022-11-01T23:08:36.961Z,7.28
2022-11-01T23:11:04.640Z,7.28
2022-11-01T23:13:56.311Z,7.48
2022-11-01T23:16:36.285Z,7.70
2022-11-01T23:19:11.101Z,7.48
2022-11-01T23:21:38.058Z,7.86
2022-11-01T23:24:07.904Z,7.90
2022-11-01T23:26:34.998Z,7.84
2022-11-01T23:29:02.459Z,7.75
2022-11-01T23:31:29.788Z,8.08
2022-11-01T23:33:56.704Z,7.72
2022-11-01T23:36:27.031Z,7.57
2022-11-01T23:39:08.852Z,7.27
2022-11-01T23:41:45.200Z,6.98
2022-11-01T23:44:39.332Z,6.68
2022-11-01T23:47:27.644Z,6.82
2022-11-01T23:50:30.914Z,6.77
2022-11-01T23:53:13.299Z,7.29
2022-11-01T23:55:48.146Z,7.46
